createdAt,value
2022-10-07T00:00:02.944Z,20.56
2022-10-07T00:02:05.242Z,20.57
2022-10-07T00:04:06.553Z,20.55
2022-10-07T00:06:07.838Z,20.57
2022-10-07T00:08:09.166Z,20.55
2022-10-07T00:10:10.646Z,20.56
2022-10-07T00:12:11.911Z,20.56
2022-10-07T00:14:13.235Z,20.56
2022-10-07T00:16:14.605Z,20.55
2022-10-07T00:18:15.902Z,20.54
2022-10-07T00:20:17.194Z,20.54
2022-10-07T00:22:18.473Z,20.54
2022-10-07T00:24:19.755Z,20.58
2022-10-07T00:26:21.115Z,20.55
2022-10-07T00:28:22.428Z,20.52
2022-10-07T00:30:23.779Z,20.50
2022-10-07T00:32:25.067Z,20.52
2022-10-07T00:34:26.414Z,20.55
2022-10-07T00:36:28.349Z,20.55
2022-10-07T00:38:29.630Z,20.54
2022-10-07T00:40:30.958Z,20.54
2022-10-07T00:42:33.403Z,20.54
2022-10-07T00:44:35.417Z,20.55
2022-10-07T00:46:36.700Z,20.58
2022-10-07T00:48:38.723Z,20.57
2022-10-07T00:50:40.010Z,20.54
2022-10-07T00:52:41.341Z,20.52
2022-10-07T00:54:42.713Z,20.51
2022-10-07T00:56:43.978Z,20.49
2022-10-07T00:58:45.262Z,20.49
2022-10-07T01:00:46.691Z,20.47
2022-10-07T01:02:48.572Z,20.48
2022-10-07T01:04:49.898Z,20.47
2022-10-07T01:06:51.385Z,20.51
2022-10-07T01:08:52.918Z,20.55
2022-10-07T01:10:54.195Z,20.56
2022-10-07T01:12:55.570Z,20.54
2022-10-07T01:14:56.842Z,20.55
2022-10-07T01:16:58.182Z,20.53
2022-10-07T01:18:59.523Z,20.53
2022-10-07T01:21:00.857Z,20.55
2022-10-07T01:23:02.168Z,20.55
2022-10-07T01:25:03.513Z,20.56
2022-10-07T01:27:04.822Z,20.57
2022-10-07T01:29:06.095Z,20.58
2022-10-07T01:31:07.611Z,20.57
2022-10-07T01:33:08.970Z,20.58
2022-10-07T01:35:10.248Z,20.60
2022-10-07T01:37:12.087Z,20.60
2022-10-07T01:39:13.407Z,20.59
2022-10-07T01:41:15.169Z,20.61
2022-10-07T01:43:16.454Z,20.62
2022-10-07T01:45:21.505Z,20.61
2022-10-07T01:47:22.790Z,20.57
2022-10-07T01:49:24.103Z,20.55
2022-10-07T01:51:25.415Z,20.54
2022-10-07T01:53:26.737Z,20.53
2022-10-07T01:55:28.482Z,20.53
2022-10-07T01:57:29.824Z,20.56
2022-10-07T01:59:31.336Z,20.57
2022-10-07T02:01:32.688Z,20.60
2022-10-07T02:03:34.109Z,20.61
2022-10-07T02:05:35.611Z,20.63
2022-10-07T02:07:36.947Z,20.64
2022-10-07T02:09:38.251Z,20.65
2022-10-07T02:11:39.535Z,20.66
2022-10-07T02:13:40.806Z,20.68
2022-10-07T02:15:42.842Z,20.68
2022-10-07T02:17:44.320Z,20.71
2022-10-07T02:19:45.915Z,20.70
2022-10-07T02:21:47.568Z,20.70
2022-10-07T02:23:48.861Z,20.71
2022-10-07T02:25:50.175Z,20.72
2022-10-07T02:27:51.485Z,20.75
2022-10-07T02:29:52.765Z,20.79
2022-10-07T02:31:54.040Z,20.79
2022-10-07T02:33:57.260Z,20.78
2022-10-07T02:35:58.615Z,20.79
2022-10-07T02:37:59.885Z,20.81
2022-10-07T02:40:01.188Z,20.80
2022-10-07T02:42:03.656Z,20.94
2022-10-07T02:44:04.961Z,20.85
2022-10-07T02:46:08.066Z,20.75
2022-10-07T02:48:09.613Z,20.67
2022-10-07T02:50:10.942Z,20.60
2022-10-07T02:52:12.215Z,20.57
2022-10-07T02:54:13.552Z,20.69
2022-10-07T02:56:14.839Z,20.94
2022-10-07T02:58:16.181Z,20.80
2022-10-07T03:00:17.444Z,20.66
2022-10-07T03:02:18.739Z,20.50
2022-10-07T03:04:21.544Z,20.38
2022-10-07T03:06:22.868Z,20.37
2022-10-07T03:08:24.179Z,20.37
2022-10-07T03:10:26.879Z,20.37
2022-10-07T03:12:29.024Z,20.34
2022-10-07T03:14:30.916Z,20.35
2022-10-07T03:16:32.241Z,20.34
2022-10-07T03:18:33.914Z,20.33
2022-10-07T03:20:35.241Z,20.33
2022-10-07T03:22:36.499Z,20.32
2022-10-07T03:24:37.839Z,20.32
2022-10-07T03:26:39.768Z,20.32
2022-10-07T03:28:41.135Z,20.31
2022-10-07T03:30:42.556Z,20.29
2022-10-07T03:32:44.178Z,20.29
2022-10-07T03:34:45.524Z,20.29
2022-10-07T03:36:47.530Z,20.27
2022-10-07T03:38:48.848Z,20.28
2022-10-07T03:40:50.157Z,20.28
2022-10-07T03:42:51.432Z,20.29
2022-10-07T03:44:52.761Z,20.28
2022-10-07T03:46:54.139Z,20.27
2022-10-07T03:48:55.530Z,20.26
2022-10-07T03:50:57.743Z,20.25
2022-10-07T03:52:59.070Z,20.22
2022-10-07T03:55:00.362Z,20.18
2022-10-07T03:57:01.684Z,20.17
2022-10-07T03:59:03.001Z,20.15
2022-10-07T04:01:04.274Z,20.14
2022-10-07T04:03:07.612Z,20.11
2022-10-07T04:05:08.967Z,20.09
2022-10-07T04:07:10.233Z,20.10
2022-10-07T04:09:11.572Z,20.11
2022-10-07T04:11:12.914Z,20.10
2022-10-07T04:13:14.399Z,20.11
2022-10-07T04:15:15.703Z,20.11
2022-10-07T04:17:17.027Z,20.12
2022-10-07T04:19:18.312Z,20.14
2022-10-07T04:21:19.667Z,19.44
2022-10-07T04:23:20.967Z,20.16
2022-10-07T04:25:34.605Z,20.17
2022-10-07T04:27:51.035Z,20.18
2022-10-07T04:29:53.059Z,20.17
2022-10-07T04:31:58.202Z,20.19
2022-10-07T04:33:59.499Z,20.20
2022-10-07T04:36:00.790Z,20.21
2022-10-07T04:38:02.587Z,20.20
2022-10-07T04:40:03.867Z,20.19
2022-10-07T04:42:05.121Z,20.18
2022-10-07T04:44:06.398Z,20.18
2022-10-07T04:46:07.696Z,20.18
2022-10-07T04:48:08.971Z,20.19
2022-10-07T04:50:10.273Z,20.18
2022-10-07T04:52:11.580Z,20.18
2022-10-07T04:54:13.475Z,20.18
2022-10-07T04:56:14.818Z,20.17
2022-10-07T04:58:16.145Z,20.17
2022-10-07T05:00:17.391Z,20.18
2022-10-07T05:02:18.800Z,20.18
2022-10-07T05:04:20.330Z,20.17
2022-10-07T05:06:21.626Z,20.15
2022-10-07T05:08:24.378Z,20.16
2022-10-07T05:10:25.754Z,20.15
2022-10-07T05:12:27.534Z,20.14
2022-10-07T05:14:28.810Z,20.15
2022-10-07T05:16:30.124Z,20.14
2022-10-07T05:18:31.685Z,20.13
2022-10-07T05:20:35.251Z,20.13
2022-10-07T05:22:36.582Z,20.12
2022-10-07T05:24:37.865Z,20.13
2022-10-07T05:26:39.123Z,20.13
2022-10-07T05:28:41.795Z,20.11
2022-10-07T05:30:43.178Z,20.10
2022-10-07T05:32:44.442Z,20.12
2022-10-07T05:34:45.771Z,20.11
2022-10-07T05:36:47.380Z,20.10
2022-10-07T05:38:48.709Z,20.12
2022-10-07T05:40:49.983Z,20.12
2022-10-07T05:42:51.423Z,20.11
2022-10-07T05:44:52.751Z,20.11
2022-10-07T05:46:54.079Z,20.13
2022-10-07T05:48:55.522Z,20.12
2022-10-07T05:50:57.172Z,20.13
2022-10-07T05:52:58.450Z,20.14
2022-10-07T05:54:59.727Z,20.15
2022-10-07T05:57:01.034Z,20.15
2022-10-07T05:59:02.590Z,20.15
2022-10-07T06:01:07.708Z,20.16
2022-10-07T06:03:11.531Z,20.18
2022-10-07T06:05:12.951Z,20.16
2022-10-07T06:07:19.567Z,20.16
2022-10-07T06:09:40.812Z,20.16
2022-10-07T06:12:00.675Z,20.15
2022-10-07T06:14:01.976Z,19.34
2022-10-07T06:16:03.275Z,20.15
2022-10-07T06:18:04.593Z,20.15
2022-10-07T06:20:05.854Z,20.15
2022-10-07T06:22:07.152Z,20.14
2022-10-07T06:24:08.440Z,20.13
2022-10-07T06:26:10.195Z,20.14
2022-10-07T06:28:11.535Z,20.14
2022-10-07T06:30:13.154Z,20.13
2022-10-07T06:32:14.439Z,20.12
2022-10-07T06:34:15.767Z,20.11
2022-10-07T06:36:17.060Z,20.10
2022-10-07T06:38:18.790Z,20.08
2022-10-07T06:40:20.379Z,20.06
2022-10-07T06:42:21.854Z,20.05
2022-10-07T06:44:23.141Z,20.02
2022-10-07T06:46:24.538Z,20.01
2022-10-07T06:48:25.896Z,19.97
2022-10-07T06:50:27.201Z,19.95
2022-10-07T06:52:28.479Z,19.92
2022-10-07T06:54:29.786Z,19.92
2022-10-07T06:56:31.067Z,19.91
2022-10-07T06:58:32.376Z,19.90
2022-10-07T07:00:33.651Z,19.91
2022-10-07T07:02:34.987Z,19.89
2022-10-07T07:04:36.341Z,19.91
2022-10-07T07:06:37.668Z,19.92
2022-10-07T07:08:41.124Z,19.93
2022-10-07T07:10:42.929Z,19.95
2022-10-07T07:12:44.801Z,19.96
2022-10-07T07:14:46.444Z,19.98
2022-10-07T07:16:47.833Z,20.00
2022-10-07T07:18:49.107Z,20.01
2022-10-07T07:20:50.383Z,20.01
2022-10-07T07:22:54.835Z,20.00
2022-10-07T07:24:56.172Z,19.99
2022-10-07T07:26:57.462Z,19.99
2022-10-07T07:29:02.342Z,19.99
2022-10-07T07:31:03.718Z,20.00
2022-10-07T07:33:05.343Z,20.02
2022-10-07T07:35:06.634Z,20.02
2022-10-07T07:37:07.912Z,20.04
2022-10-07T07:39:09.752Z,20.05
2022-10-07T07:41:11.226Z,20.06
2022-10-07T07:43:12.516Z,20.07
2022-10-07T07:45:13.801Z,20.09
2022-10-07T07:47:17.021Z,20.10
2022-10-07T07:49:18.376Z,20.13
2022-10-07T07:51:20.000Z,19.37
2022-10-07T07:53:22.846Z,20.19
2022-10-07T07:55:24.142Z,20.25
2022-10-07T07:57:25.493Z,20.29
2022-10-07T07:59:26.878Z,20.34
2022-10-07T08:01:32.024Z,20.41
2022-10-07T08:03:33.454Z,20.48
2022-10-07T08:05:34.789Z,20.51
2022-10-07T08:07:36.048Z,20.55
2022-10-07T08:09:37.395Z,20.58
2022-10-07T08:11:38.669Z,20.59
2022-10-07T08:13:41.290Z,20.60
2022-10-07T08:15:42.659Z,20.60
2022-10-07T08:17:44.215Z,20.60
2022-10-07T08:19:45.744Z,20.60
2022-10-07T08:21:47.093Z,20.58
2022-10-07T08:23:48.367Z,20.60
2022-10-07T08:25:49.644Z,20.59
2022-10-07T08:27:51.531Z,20.58
2022-10-07T08:29:52.825Z,20.60
2022-10-07T08:31:54.078Z,20.58
2022-10-07T08:33:55.381Z,20.58
2022-10-07T08:35:56.658Z,20.60
2022-10-07T08:37:57.989Z,20.60
2022-10-07T08:39:59.282Z,20.61
2022-10-07T08:42:00.558Z,20.60
2022-10-07T08:44:06.226Z,20.61
2022-10-07T08:46:09.220Z,20.61
2022-10-07T08:48:11.435Z,19.77
2022-10-07T08:50:18.068Z,19.83
2022-10-07T08:52:20.997Z,20.62
2022-10-07T08:54:22.547Z,20.63
2022-10-07T08:56:23.919Z,20.64
2022-10-07T08:58:25.247Z,20.63
2022-10-07T09:00:26.524Z,20.65
2022-10-07T09:02:28.535Z,20.65
2022-10-07T09:04:30.295Z,20.65
2022-10-07T09:06:31.607Z,20.65
2022-10-07T09:08:32.924Z,20.67
2022-10-07T09:10:34.247Z,20.68
2022-10-07T09:12:35.518Z,20.67
2022-10-07T09:14:37.554Z,20.68
2022-10-07T09:16:38.878Z,20.69
2022-10-07T09:18:40.183Z,20.69
2022-10-07T09:20:42.762Z,20.70
2022-10-07T09:22:44.039Z,20.71
2022-10-07T09:24:45.312Z,20.72
2022-10-07T09:26:46.641Z,20.73
2022-10-07T09:28:48.039Z,20.75
2022-10-07T09:30:49.483Z,20.75
2022-10-07T09:32:50.806Z,20.75
2022-10-07T09:34:52.373Z,20.76
2022-10-07T09:36:53.908Z,20.77
2022-10-07T09:38:55.188Z,20.78
2022-10-07T09:41:15.268Z,20.78
2022-10-07T09:43:16.773Z,20.78
2022-10-07T09:45:18.070Z,20.78
2022-10-07T09:47:19.373Z,20.77
2022-10-07T09:49:24.259Z,20.79
2022-10-07T09:51:27.068Z,20.80
2022-10-07T09:53:33.295Z,20.80
2022-10-07T09:55:38.093Z,20.81
2022-10-07T09:57:39.380Z,20.81
2022-10-07T09:59:40.712Z,20.82
2022-10-07T10:01:42.065Z,20.82
2022-10-07T10:03:43.493Z,20.83
2022-10-07T10:05:44.811Z,20.85
2022-10-07T10:07:46.280Z,20.84
2022-10-07T10:09:47.999Z,20.85
2022-10-07T10:11:49.310Z,20.85
2022-10-07T10:13:50.636Z,20.86
2022-10-07T10:15:51.986Z,20.86
2022-10-07T10:17:54.759Z,20.86
2022-10-07T10:19:56.085Z,20.87
2022-10-07T10:21:59.082Z,20.87
2022-10-07T10:24:00.526Z,20.88
2022-10-07T10:26:20.671Z,20.86
2022-10-07T10:28:22.019Z,20.86
2022-10-07T10:30:23.323Z,20.85
2022-10-07T10:32:24.603Z,20.86
2022-10-07T10:34:25.891Z,20.87
2022-10-07T10:36:27.873Z,20.87
2022-10-07T10:38:29.666Z,20.87
2022-10-07T10:40:30.980Z,20.87
2022-10-07T10:42:32.278Z,20.87
2022-10-07T10:44:34.057Z,20.87
2022-10-07T10:46:35.463Z,20.86
2022-10-07T10:48:36.819Z,20.86
2022-10-07T10:50:38.223Z,20.87
2022-10-07T10:52:39.599Z,20.87
2022-10-07T10:54:40.882Z,20.87
2022-10-07T10:56:42.163Z,20.88
2022-10-07T10:58:44.203Z,20.88
2022-10-07T11:00:45.487Z,20.89
2022-10-07T11:02:46.978Z,20.86
2022-10-07T11:04:50.069Z,20.86
2022-10-07T11:06:51.954Z,20.83
2022-10-07T11:08:53.263Z,20.79
2022-10-07T11:10:54.546Z,20.75
2022-10-07T11:12:57.091Z,20.81
2022-10-07T11:14:58.904Z,20.81
2022-10-07T11:17:00.197Z,20.84
2022-10-07T11:19:01.513Z,20.74
2022-10-07T11:21:02.827Z,20.78
2022-10-07T11:23:04.163Z,20.83
2022-10-07T11:25:05.427Z,20.84
2022-10-07T11:27:06.699Z,20.85
2022-10-07T11:29:08.952Z,20.87
2022-10-07T11:31:11.216Z,20.87
2022-10-07T11:33:12.991Z,20.86
2022-10-07T11:35:14.260Z,20.84
2022-10-07T11:37:16.191Z,20.88
2022-10-07T11:39:17.508Z,20.88
2022-10-07T11:41:19.887Z,20.89
2022-10-07T11:43:21.191Z,20.88
2022-10-07T11:45:22.442Z,20.88
2022-10-07T11:47:23.726Z,20.84
2022-10-07T11:49:25.011Z,20.87
2022-10-07T11:51:26.301Z,20.88
2022-10-07T11:53:28.471Z,20.77
2022-10-07T11:55:29.743Z,20.78
2022-10-07T11:57:34.079Z,20.80
2022-10-07T11:59:35.775Z,20.79
2022-10-07T12:01:37.093Z,20.79
2022-10-07T12:03:38.434Z,20.84
2022-10-07T12:05:39.723Z,20.73
2022-10-07T12:07:41.049Z,20.77
2022-10-07T12:09:43.030Z,20.83
2022-10-07T12:11:44.459Z,20.90
2022-10-07T12:13:45.975Z,20.94
2022-10-07T12:15:47.414Z,21.00
2022-10-07T12:17:48.684Z,21.05
2022-10-07T12:19:49.942Z,21.07
2022-10-07T12:21:51.221Z,21.11
2022-10-07T12:23:52.515Z,21.15
2022-10-07T12:25:53.797Z,21.17
2022-10-07T12:27:55.284Z,21.15
2022-10-07T12:30:00.267Z,21.13
2022-10-07T12:32:01.671Z,21.10
2022-10-07T12:34:03.188Z,21.12
2022-10-07T12:36:04.516Z,21.11
2022-10-07T12:38:05.819Z,22.01
2022-10-07T12:40:07.096Z,22.34
2022-10-07T12:42:08.377Z,22.56
2022-10-07T12:44:10.831Z,22.18
2022-10-07T12:46:12.376Z,21.95
2022-10-07T12:48:13.707Z,21.46
2022-10-07T12:50:14.978Z,22.11
2022-10-07T12:52:16.277Z,22.17
2022-10-07T12:54:18.959Z,22.34
2022-10-07T12:56:21.070Z,23.18
2022-10-07T12:58:40.846Z,23.10
2022-10-07T13:00:42.135Z,23.34
2022-10-07T13:02:43.657Z,23.48
2022-10-07T13:04:45.472Z,23.23
2022-10-07T13:06:46.747Z,23.21
2022-10-07T13:08:48.066Z,23.33
2022-10-07T13:10:50.155Z,22.91
2022-10-07T13:12:51.436Z,23.22
2022-10-07T13:14:52.743Z,23.27
2022-10-07T13:16:54.161Z,23.18
2022-10-07T13:18:55.457Z,23.09
2022-10-07T13:20:56.738Z,22.73
2022-10-07T13:22:58.008Z,22.72
2022-10-07T13:24:59.787Z,23.00
2022-10-07T13:27:01.172Z,23.07
2022-10-07T13:29:02.456Z,22.97
2022-10-07T13:31:03.756Z,23.05
2022-10-07T13:33:05.026Z,23.15
2022-10-07T13:35:06.362Z,23.18
2022-10-07T13:37:07.640Z,23.16
2022-10-07T13:39:08.912Z,23.15
2022-10-07T13:41:10.266Z,23.16
2022-10-07T13:43:12.551Z,23.20
2022-10-07T13:45:13.861Z,23.19
2022-10-07T13:47:15.157Z,23.21
2022-10-07T13:49:16.612Z,22.91
2022-10-07T13:51:17.884Z,22.30
2022-10-07T13:53:19.158Z,22.49
2022-10-07T13:55:20.752Z,22.66
2022-10-07T13:57:22.018Z,22.65
2022-10-07T13:59:23.333Z,22.61
2022-10-07T14:01:27.170Z,22.64
2022-10-07T14:03:28.495Z,22.57
2022-10-07T14:05:29.817Z,22.61
2022-10-07T14:07:31.141Z,22.64
2022-10-07T14:09:32.420Z,22.60
2022-10-07T14:11:33.699Z,22.63
2022-10-07T14:13:34.973Z,22.18
2022-10-07T14:15:36.432Z,21.73
2022-10-07T14:17:37.695Z,21.61
2022-10-07T14:19:39.159Z,21.42
2022-10-07T14:21:40.439Z,21.34
2022-10-07T14:23:41.699Z,21.30
2022-10-07T14:25:46.809Z,21.26
2022-10-07T14:27:48.283Z,21.49
2022-10-07T14:29:49.738Z,22.10
2022-10-07T14:32:09.837Z,22.40
2022-10-07T14:34:29.687Z,22.65
2022-10-07T14:36:31.194Z,22.68
2022-10-07T14:38:32.520Z,22.65
2022-10-07T14:40:33.796Z,22.69
2022-10-07T14:42:36.268Z,22.78
2022-10-07T14:44:37.567Z,22.87
2022-10-07T14:46:39.225Z,22.77
2022-10-07T14:48:40.517Z,22.76
2022-10-07T14:50:42.026Z,22.77
2022-10-07T14:52:45.942Z,22.58
2022-10-07T14:54:47.648Z,22.25
2022-10-07T14:56:49.678Z,22.47
2022-10-07T14:58:51.145Z,22.49
2022-10-07T15:00:52.983Z,22.25
2022-10-07T15:02:54.697Z,21.89
2022-10-07T15:04:56.020Z,21.67
2022-10-07T15:06:58.055Z,21.52
2022-10-07T15:09:00.597Z,21.44
2022-10-07T15:11:02.828Z,21.38
2022-10-07T15:13:08.699Z,21.31
2022-10-07T15:15:13.695Z,21.26
2022-10-07T15:17:15.315Z,21.20
2022-10-07T15:19:16.595Z,21.16
2022-10-07T15:21:17.907Z,21.11
2022-10-07T15:23:19.242Z,21.05
2022-10-07T15:25:21.504Z,21.02
2022-10-07T15:27:22.802Z,20.99
2022-10-07T15:29:24.084Z,20.95
2022-10-07T15:31:26.136Z,20.92
2022-10-07T15:33:27.498Z,20.93
2022-10-07T15:35:30.070Z,21.42
2022-10-07T15:37:32.350Z,21.87
2022-10-07T15:39:38.798Z,21.73
2022-10-07T15:41:40.964Z,21.78
2022-10-07T15:43:42.235Z,21.70
2022-10-07T15:45:43.496Z,21.49
2022-10-07T15:47:44.805Z,21.38
2022-10-07T15:49:46.111Z,21.46
2022-10-07T15:51:47.631Z,21.59
2022-10-07T15:53:48.926Z,21.54
2022-10-07T15:55:51.151Z,21.62
2022-10-07T15:57:52.509Z,20.77
2022-10-07T15:59:54.732Z,21.76
2022-10-07T16:01:56.173Z,21.85
2022-10-07T16:03:57.481Z,21.87
2022-10-07T16:05:59.709Z,21.89
2022-10-07T16:08:02.833Z,21.91
2022-10-07T16:10:04.118Z,21.91
2022-10-07T16:12:05.401Z,21.91
2022-10-07T16:14:06.684Z,21.94
2022-10-07T16:16:08.032Z,21.93
2022-10-07T16:18:09.399Z,21.92
2022-10-07T16:20:11.538Z,21.92
2022-10-07T16:22:13.031Z,21.94
2022-10-07T16:24:14.380Z,21.80
2022-10-07T16:26:15.694Z,21.48
2022-10-07T16:28:35.642Z,21.30
2022-10-07T16:30:43.136Z,21.17
2022-10-07T16:32:44.625Z,21.10
2022-10-07T16:34:46.957Z,21.07
2022-10-07T16:36:48.236Z,21.02
2022-10-07T16:38:49.939Z,21.02
2022-10-07T16:40:51.267Z,21.00
2022-10-07T16:42:52.533Z,21.01
2022-10-07T16:44:53.803Z,21.00
2022-10-07T16:46:57.411Z,20.98
2022-10-07T16:48:58.785Z,20.95
2022-10-07T16:51:01.323Z,20.94
2022-10-07T16:53:02.592Z,20.93
2022-10-07T16:55:03.930Z,20.90
2022-10-07T16:57:05.279Z,21.15
2022-10-07T16:59:06.807Z,21.46
2022-10-07T17:01:09.696Z,21.54
2022-10-07T17:03:11.051Z,21.63
2022-10-07T17:05:12.332Z,21.86
2022-10-07T17:07:13.745Z,22.10
2022-10-07T17:09:15.226Z,22.26
2022-10-07T17:11:28.662Z,22.01
2022-10-07T17:13:30.364Z,21.94
2022-10-07T17:15:31.668Z,21.86
2022-10-07T17:17:33.783Z,21.81
2022-10-07T17:19:36.454Z,21.76
2022-10-07T17:21:39.675Z,21.74
2022-10-07T17:23:41.388Z,21.75
2022-10-07T17:25:46.105Z,21.87
2022-10-07T17:27:48.540Z,21.76
2022-10-07T17:29:50.080Z,21.74
2022-10-07T17:31:51.626Z,21.73
2022-10-07T17:33:53.027Z,21.74
2022-10-07T17:35:54.350Z,21.88
2022-10-07T17:37:56.651Z,21.96
2022-10-07T17:39:57.938Z,21.98
2022-10-07T17:41:59.198Z,22.03
2022-10-07T17:44:00.480Z,22.06
2022-10-07T17:46:01.763Z,21.69
2022-10-07T17:48:03.563Z,21.40
2022-10-07T17:50:04.940Z,21.51
2022-10-07T17:52:06.268Z,21.62
2022-10-07T17:54:07.651Z,21.68
2022-10-07T17:56:09.948Z,21.72
2022-10-07T17:58:11.218Z,21.83
2022-10-07T18:00:12.522Z,21.95
2022-10-07T18:02:13.822Z,22.03
2022-10-07T18:04:15.292Z,22.09
2022-10-07T18:06:17.247Z,21.96
2022-10-07T18:08:18.535Z,21.87
2022-10-07T18:10:20.264Z,21.89
2022-10-07T18:12:40.301Z,21.90
2022-10-07T18:15:16.972Z,21.90
2022-10-07T18:17:18.241Z,21.86
2022-10-07T18:19:19.518Z,21.95
2022-10-07T18:21:22.265Z,21.99
2022-10-07T18:23:25.559Z,22.00
2022-10-07T18:25:26.901Z,21.99
2022-10-07T18:27:28.231Z,21.04
2022-10-07T18:29:29.560Z,21.52
2022-10-07T18:31:30.851Z,21.41
2022-10-07T18:33:32.734Z,21.59
2022-10-07T18:35:34.006Z,21.70
2022-10-07T18:37:36.135Z,21.87
2022-10-07T18:39:37.447Z,21.97
2022-10-07T18:41:38.757Z,22.01
2022-10-07T18:43:40.107Z,22.07
2022-10-07T18:45:41.446Z,22.09
2022-10-07T18:47:42.922Z,22.10
2022-10-07T18:49:44.318Z,22.11
2022-10-07T18:51:50.570Z,22.15
2022-10-07T18:53:54.163Z,22.18
2022-10-07T18:55:55.440Z,22.82
2022-10-07T18:57:56.719Z,22.87
2022-10-07T18:59:58.021Z,22.57
2022-10-07T19:01:59.452Z,22.52
2022-10-07T19:04:03.402Z,22.43
2022-10-07T19:06:05.000Z,22.26
2022-10-07T19:08:06.612Z,21.94
2022-10-07T19:10:07.972Z,21.66
2022-10-07T19:12:29.211Z,22.09
2022-10-07T19:14:31.260Z,21.94
2022-10-07T19:16:35.658Z,21.79
2022-10-07T19:18:38.365Z,21.80
2022-10-07T19:20:42.472Z,21.88
2022-10-07T19:22:45.727Z,21.88
2022-10-07T19:25:05.878Z,21.90
2022-10-07T19:27:07.256Z,22.04
2022-10-07T19:29:14.364Z,22.01
2022-10-07T19:31:15.922Z,22.00
2022-10-07T19:33:17.370Z,22.08
2022-10-07T19:35:18.671Z,22.17
2022-10-07T19:37:22.655Z,22.17
2022-10-07T19:39:23.950Z,22.17
2022-10-07T19:41:25.233Z,22.17
2022-10-07T19:43:26.621Z,22.21
2022-10-07T19:45:27.934Z,22.28
2022-10-07T19:47:30.272Z,22.24
2022-10-07T19:49:31.578Z,22.31
2022-10-07T19:51:33.057Z,22.24
2022-10-07T19:53:34.340Z,22.19
2022-10-07T19:55:36.614Z,21.92
2022-10-07T19:57:37.886Z,21.62
2022-10-07T19:59:39.182Z,21.48
2022-10-07T20:01:41.741Z,21.39
2022-10-07T20:03:43.095Z,21.33
2022-10-07T20:05:44.468Z,21.31
2022-10-07T20:07:45.962Z,21.50
2022-10-07T20:09:47.386Z,21.92
2022-10-07T20:11:48.672Z,21.96
2022-10-07T20:13:50.129Z,22.07
2022-10-07T20:15:51.410Z,22.17
2022-10-07T20:17:54.745Z,22.17
2022-10-07T20:19:56.431Z,22.22
2022-10-07T20:22:01.047Z,22.26
2022-10-07T20:24:02.367Z,22.26
2022-10-07T20:26:03.648Z,22.27
2022-10-07T20:28:05.668Z,22.26
2022-10-07T20:30:17.668Z,22.34
2022-10-07T20:32:19.463Z,22.38
2022-10-07T20:34:20.742Z,22.35
2022-10-07T20:36:22.167Z,22.35
2022-10-07T20:38:23.574Z,22.36
2022-10-07T20:40:43.587Z,22.37
2022-10-07T20:42:47.126Z,22.36
2022-10-07T20:44:49.282Z,22.28
2022-10-07T20:46:51.951Z,22.19
2022-10-07T20:48:54.078Z,21.17
2022-10-07T20:50:55.578Z,19.76
2022-10-07T20:52:57.022Z,19.54
2022-10-07T20:54:58.538Z,20.47
2022-10-07T20:56:59.854Z,20.86
2022-10-07T20:59:01.209Z,21.00
2022-10-07T21:01:02.525Z,21.04
2022-10-07T21:03:03.947Z,21.03
2022-10-07T21:05:05.266Z,21.01
2022-10-07T21:07:06.547Z,20.98
2022-10-07T21:09:08.083Z,20.97
2022-10-07T21:11:09.359Z,20.95
2022-10-07T21:13:10.634Z,20.91
2022-10-07T21:15:11.930Z,20.89
2022-10-07T21:17:13.256Z,20.87
2022-10-07T21:19:14.568Z,20.84
2022-10-07T21:21:15.883Z,20.83
2022-10-07T21:23:17.168Z,20.80
2022-10-07T21:25:18.497Z,20.78
2022-10-07T21:27:19.778Z,20.78
2022-10-07T21:29:21.058Z,20.78
2022-10-07T21:31:22.488Z,20.77
2022-10-07T21:33:24.282Z,20.74
2022-10-07T21:35:25.543Z,20.73
2022-10-07T21:37:26.848Z,20.70
2022-10-07T21:39:28.131Z,20.68
2022-10-07T21:41:34.300Z,20.67
2022-10-07T21:43:35.611Z,20.64
2022-10-07T21:45:39.023Z,20.61
2022-10-07T21:47:40.294Z,20.60
2022-10-07T21:49:41.589Z,20.59
2022-10-07T21:51:42.881Z,20.55
2022-10-07T21:53:45.704Z,20.55
2022-10-07T21:55:47.183Z,20.53
2022-10-07T21:57:48.456Z,20.52
2022-10-07T21:59:51.108Z,20.55
2022-10-07T22:01:52.459Z,20.52
2022-10-07T22:03:54.010Z,20.54
2022-10-07T22:05:55.436Z,20.56
2022-10-07T22:08:15.273Z,20.58
2022-10-07T22:10:16.548Z,20.60
2022-10-07T22:12:18.514Z,20.62
2022-10-07T22:14:19.794Z,20.61
2022-10-07T22:16:21.066Z,20.64
2022-10-07T22:18:22.375Z,20.64
2022-10-07T22:20:23.707Z,20.62
2022-10-07T22:22:25.118Z,20.61
2022-10-07T22:24:26.437Z,20.60
2022-10-07T22:26:27.703Z,20.59
2022-10-07T22:28:29.084Z,20.61
2022-10-07T22:30:30.394Z,20.60
2022-10-07T22:32:31.863Z,20.61
2022-10-07T22:34:51.654Z,20.60
2022-10-07T22:36:52.978Z,20.58
2022-10-07T22:38:57.079Z,20.57
2022-10-07T22:40:58.351Z,20.56
2022-10-07T22:42:59.618Z,20.55
2022-10-07T22:45:00.933Z,20.56
2022-10-07T22:47:05.256Z,20.54
2022-10-07T22:49:06.536Z,20.54
2022-10-07T22:51:08.373Z,20.55
2022-10-07T22:53:09.688Z,20.54
2022-10-07T22:55:10.989Z,20.52
2022-10-07T22:57:12.317Z,20.51
2022-10-07T22:59:13.652Z,20.50
2022-10-07T23:01:14.958Z,20.48
2022-10-07T23:03:16.365Z,20.48
2022-10-07T23:05:17.764Z,20.46
2022-10-07T23:07:19.079Z,20.46
2022-10-07T23:09:21.043Z,20.44
2022-10-07T23:11:22.307Z,20.43
2022-10-07T23:13:24.977Z,20.43
2022-10-07T23:15:26.276Z,20.43
2022-10-07T23:17:27.622Z,20.43
2022-10-07T23:19:28.919Z,20.44
2022-10-07T23:21:30.226Z,20.45
2022-10-07T23:23:31.509Z,20.44
2022-10-07T23:25:32.774Z,20.46
2022-10-07T23:27:34.095Z,20.47
2022-10-07T23:29:35.430Z,20.49
2022-10-07T23:31:36.981Z,20.54
2022-10-07T23:33:38.262Z,20.58
2022-10-07T23:35:39.590Z,20.60
2022-10-07T23:37:40.907Z,20.61
2022-10-07T23:39:42.184Z,20.63
2022-10-07T23:41:43.501Z,20.63
2022-10-07T23:43:44.779Z,20.64
2022-10-07T23:45:46.099Z,20.66
2022-10-07T23:47:47.420Z,20.67
2022-10-07T23:49:48.706Z,20.68
2022-10-07T23:51:50.003Z,20.68
2022-10-07T23:53:51.276Z,20.68
2022-10-07T23:55:53.171Z,20.67
2022-10-07T23:57:54.495Z,20.65
2022-10-07T23:59:55.781Z,20.63
